AirNav   Pilot Hours Calculator
 
 815 users online  

42VA Virginia Beach Airport
Virginia Beach, Virginia, USA

GOING TO VIRGINIA BEACH?


FAA INFORMATION EFFECTIVE 31 DECEMBER 2020

Location

FAA Identifier: 42VA
Lat/Long: 36-40-44.0550N 076-01-57.9950W
36-40.734250N 076-01.966583W
36.6789042,-76.0327764
(estimated)
Elevation: 15 ft. / 5 m (estimated)
Variation: 10W (1990)
From city: 4 miles SE of VIRGINIA BEACH, VA
Time zone: UTC -5 (UTC -4 during Daylight Saving Time)
Zip code: 23457

Airport Operations

Airport use: Private use. Permission required prior to landing
Activation date: 04/1993
Control tower: no
ARTCC: WASHINGTON CENTER
FSS: LEESBURG FLIGHT SERVICE STATION
Attendance: UNATNDD
Wind indicator: yes
Segmented circle: no

Airport Communications

WX ASOS at NTU (9 nm N): PHONE DSN 433-3619 or 757-433-3619
WX AWOS-3 at CPK (14 nm W): 123.675 (757-204-4290)
WX ASOS at ORF (15 nm NW): PHONE 757-460-9348
WX AWOS-3 at ONX (17 nm S): 119.775 (252-453-8939)

Nearby radio navigation aids

VOR radial/distance  VOR name  Freq  Var
ORFr155/15.1NORFOLK VORTAC116.9007W
ECGr022/26.2ELIZABETH CITY VOR/DME112.5007W

 
NDB name  Hdg/Dist  Freq  Var  ID
INGLE142/14.332909WOR --- .-.
WOODVILLE037/28.025410WLLW .-.. .-.. .--

Airport Services

Runway Information

Runway 11/29

Dimensions: 4845 x 190 ft. / 1477 x 58 m
Surface: turf, in good condition
RUNWAY 11  RUNWAY 29
Latitude: 36-40.824167N36-40.644333N
Longitude: 076-02.449500W076-01.483667W
Elevation: 10.0 ft.9.0 ft.
Traffic pattern: leftleft

Airport Ownership and Management from official FAA records

Ownership: Privately-owned
Owner: VIRGINIA BEACH ARPT, LLC
4455 SOUTH BLVD
VIRGINIA BEACH, VA 23452
Phone 757-490-3157
Manager: GERALD YAGEN
4455 SOUTH BLVD
VIRGINIA BEACH, VA 23452
Phone 757-490-3157
EXTENSION 500.

Airport Operational Statistics

Aircraft based on the field: 54
Single engine airplanes: 50
Multi engine airplanes: 4
    

Additional Remarks

AWOS - PHONE 757-204-2683, FREQUENCY 119.925
FOR CD CTC WASHINGTON ARTCC AT 703-771-3587.

Instrument Procedures

There are no published instrument procedures at 42VA.

Some nearby airports with instrument procedures:

KNTU - Oceana Naval Air Station (Apollo Soucek Field) (9 nm N)
KCPK - Chesapeake Regional Airport (14 nm W)
KORF - Norfolk International Airport (15 nm NW)
KONX - Currituck County Regional Airport (17 nm S)
KNGU - Norfolk Naval Station (Chambers Field) (20 nm NW)
 
Loc | Ops | Rwys | IFR | FBO | Links
Com | Nav | Svcs | Stats | Notes
Area around 42VA (Virginia Beach Airport)
 
Road maps at: MapQuest Bing Google
 
Aerial photo
WARNING: Photo may not be current or correct
Aerial photo of 42VA (Virginia Beach Airport)
Photo by Jerry Yagen
Photo taken 10-Nov-2012
looking east.

Do you have a better or more recent aerial photo of Virginia Beach Airport that you would like to share? If so, please send us your photo.

 
Sectional chart

 
Airport distance calculator
Flying to Virginia Beach Airport? Find the distance to fly.

From to 42VA

Sunrise and sunset
Times for 27-Jan-2021
 Local
(UTC-5)
 Zulu
(UTC)
Morning civil twilight06:4311:43
Sunrise07:1112:11
Sunset17:2322:23
Evening civil twilight17:5122:51

Current date and time
Zulu (UTC)  27-Jan-2021 13:09:58
Local (UTC-5)  27-Jan-2021 08:09:58
 
METAR
KNFE 
5nm W 
271056Z AUTO 02005KT 4SM BR OVC003 06/05 A2998 RMK AO2 SLP152 T00610050
KNTU 
8nm N 
271156Z 34003KT 4SM BR OVC003 07/04 A3002 RMK AO2 SLP168 70003 T00720044 10078 20067 53021
KCPK 
14nm W 
271255Z AUTO 04004KT 7SM OVC004 06/06 A3004 RMK AO2 T00610055
KORF 
16nm NW 
271302Z 02006KT 1/2SM FG OVC002 06/05 A3006 RMK AO2 T00610050 RVRNO
KONX 
17nm S 
271255Z AUTO 03003KT 2 1/2SM BR OVC002 06/06 A3005 RMK AO2 T00610061
KNGU 
18nm NW 
271059Z 05003KT 4SM BR OVC003 07/05 A2998 RMK AO2 SLP153 T00670050
TAF
KNTU 
8nm N 
2523/2623 07010KT 6000 SHRA OVC010 641209 540109 541008 QNH2988INS TEMPO 2601/2607 VRB06KT 1600 RA BR OVC003 FM260700 06012KT 3200 SHRA BR BKN003 OVC010 641209 540109 541008 QNH2977INS FM261700 30008KT 9999 BKN050 600000 500000 QNH2978INS T05/2610Z T09/2619Z FN20051
KORF 
16nm NW 
271124Z 2712/2812 33004KT 4SM BR OVC002 TEMPO 2712/2713 1SM BR FM271400 35008KT P6SM OVC007 FM271700 35010KT P6SM OVC015 FM280300 01011KT 6SM -RA OVC025 FM280700 36014G22KT 4SM -RASN OVC020
KNGU 
18nm NW 
2523/2623 11007KT 4800 RA BR SCT005 BKN010 OVC070 641209 540109 541008 QNH2996INS TEMPO 2523/2602 3200 RA BR BKN004 OVC010 FM260200 10009KT 3200 RA BR BKN004 OVC010 641209 540109 541008 QNH2981INS TEMPO 2602/2607 4800 RA BR FEW004 BKN010 OVC030 FM261500 20007KT 9999 VCSH BKN004 OVC010 600000 500000 QNH2976INS FM262000 24006KT 9999 SCT004 BKN010 OVC025 QNH2977INS T04/2602Z T10/2614Z FN20002
NOTAMs
Click for the latest NOTAMs
NOTAMs are issued by the DoD/FAA and will open in a separate window not controlled by AirNav.

 

 
 

Would you like to see your business listed on this page?

 If your business provides an interesting product or service to pilots, flight crews, aircraft, or users of the Virginia Beach Airport, you should consider listing it here.  To start the listing process, click on the button below
 
Add a business
 

Other Pages about Virginia Beach Airport

www.vbairport.com
Military Aviation Museum
www.fighterfactory.com
 
Update a link
 
Copyright © AirNav, LLC. All rights reserved. Privacy Policy  Contact